sensor_id;sensor_type;location;lat;lon;timestamp;P1;durP1;ratioP1;P2;durP2;ratioP2
71091;SDS011;58751;50.708;7.134;2023-08-17T00:00:59;9.27;;;8.40;;
71091;SDS011;58751;50.708;7.134;2023-08-17T00:03:24;11.27;;;10.27;;
71091;SDS011;58751;50.708;7.134;2023-08-17T00:05:51;11.23;;;10.17;;
71091;SDS011;58751;50.708;7.134;2023-08-17T00:08:16;11.43;;;10.43;;
71091;SDS011;58751;50.708;7.134;2023-08-17T00:10:41;14.03;;;11.87;;
71091;SDS011;58751;50.708;7.134;2023-08-17T00:13:06;12.43;;;11.43;;
71091;SDS011;58751;50.708;7.134;2023-08-17T00:15:32;13.20;;;10.50;;
71091;SDS011;58751;50.708;7.134;2023-08-17T00:17:57;12.47;;;11.30;;
71091;SDS011;58751;50.708;7.134;2023-08-17T00:20:22;13.47;;;12.17;;
71091;SDS011;58751;50.708;7.134;2023-08-17T00:22:49;15.37;;;13.77;;
71091;SDS011;58751;50.708;7.134;2023-08-17T00:25:14;12.47;;;11.27;;
71091;SDS011;58751;50.708;7.134;2023-08-17T00:27:39;14.37;;;13.17;;
71091;SDS011;58751;50.708;7.134;2023-08-17T00:30:05;14.70;;;13.20;;
71091;SDS011;58751;50.708;7.134;2023-08-17T00:32:30;15.27;;;13.87;;
71091;SDS011;58751;50.708;7.134;2023-08-17T00:34:55;16.80;;;15.10;;
71091;SDS011;58751;50.708;7.134;2023-08-17T00:37:21;14.50;;;13.10;;
71091;SDS011;58751;50.708;7.134;2023-08-17T00:39:47;14.17;;;12.90;;
71091;SDS011;58751;50.708;7.134;2023-08-17T00:42:12;14.37;;;13.07;;
71091;SDS011;58751;50.708;7.134;2023-08-17T00:44:38;12.57;;;11.47;;
71091;SDS011;58751;50.708;7.134;2023-08-17T00:47:03;13.23;;;12.10;;
71091;SDS011;58751;50.708;7.134;2023-08-17T00:49:28;16.37;;;14.90;;
71091;SDS011;58751;50.708;7.134;2023-08-17T00:51:54;15.60;;;14.33;;
71091;SDS011;58751;50.708;7.134;2023-08-17T00:54:20;16.63;;;14.93;;
71091;SDS011;58751;50.708;7.134;2023-08-17T00:56:49;17.80;;;16.00;;
71091;SDS011;58751;50.708;7.134;2023-08-17T00:59:15;18.50;;;16.70;;
71091;SDS011;58751;50.708;7.134;2023-08-17T01:01:40;19.20;;;17.43;;
71091;SDS011;58751;50.708;7.134;2023-08-17T01:04:05;19.33;;;17.63;;
71091;SDS011;58751;50.708;7.134;2023-08-17T01:06:30;17.23;;;15.53;;
71091;SDS011;58751;50.708;7.134;2023-08-17T01:08:55;17.43;;;16.07;;
71091;SDS011;58751;50.708;7.134;2023-08-17T01:11:22;17.00;;;15.20;;
71091;SDS011;58751;50.708;7.134;2023-08-17T01:13:52;15.97;;;14.70;;
71091;SDS011;58751;50.708;7.134;2023-08-17T01:16:20;16.93;;;15.63;;
71091;SDS011;58751;50.708;7.134;2023-08-17T01:18:46;19.20;;;17.40;;
71091;SDS011;58751;50.708;7.134;2023-08-17T01:21:12;17.57;;;16.07;;
71091;SDS011;58751;50.708;7.134;2023-08-17T01:23:40;19.73;;;17.87;;
71091;SDS011;58751;50.708;7.134;2023-08-17T01:26:05;19.07;;;17.10;;
71091;SDS011;58751;50.708;7.134;2023-08-17T01:28:30;16.70;;;15.10;;
71091;SDS011;58751;50.708;7.134;2023-08-17T01:30:57;17.70;;;16.20;;
71091;SDS011;58751;50.708;7.134;2023-08-17T01:33:24;18.50;;;16.57;;
71091;SDS011;58751;50.708;7.134;2023-08-17T01:35:52;17.87;;;16.10;;
71091;SDS011;58751;50.708;7.134;2023-08-17T01:38:19;17.90;;;16.07;;
71091;SDS011;58751;50.708;7.134;2023-08-17T01:40:48;22.57;;;17.20;;
71091;SDS011;58751;50.708;7.134;2023-08-17T01:43:13;18.37;;;16.33;;
71091;SDS011;58751;50.708;7.134;2023-08-17T01:45:38;19.20;;;17.30;;
71091;SDS011;58751;50.708;7.134;2023-08-17T01:48:04;16.87;;;15.60;;
71091;SDS011;58751;50.708;7.134;2023-08-17T01:50:29;17.60;;;16.00;;
71091;SDS011;58751;50.708;7.134;2023-08-17T01:52:54;15.93;;;14.43;;
71091;SDS011;58751;50.708;7.134;2023-08-17T01:55:21;18.97;;;17.20;;
71091;SDS011;58751;50.708;7.134;2023-08-17T01:57:47;17.10;;;15.50;;
71091;SDS011;58751;50.708;7.134;2023-08-17T02:00:13;18.30;;;16.60;;
71091;SDS011;58751;50.708;7.134;2023-08-17T02:02:38;19.23;;;16.50;;
71091;SDS011;58751;50.708;7.134;2023-08-17T02:05:04;17.93;;;16.20;;
71091;SDS011;58751;50.708;7.134;2023-08-17T02:07:29;18.43;;;16.87;;
71091;SDS011;58751;50.708;7.134;2023-08-17T02:09:54;18.47;;;16.53;;
71091;SDS011;58751;50.708;7.134;2023-08-17T02:12:20;16.67;;;15.17;;
71091;SDS011;58751;50.708;7.134;2023-08-17T02:14:46;18.90;;;16.70;;
71091;SDS011;58751;50.708;7.134;2023-08-17T02:17:11;19.17;;;17.57;;
71091;SDS011;58751;50.708;7.134;2023-08-17T02:19:37;17.10;;;15.60;;
71091;SDS011;58751;50.708;7.134;2023-08-17T02:22:02;17.93;;;16.33;;
71091;SDS011;58751;50.708;7.134;2023-08-17T02:24:27;19.00;;;17.03;;
71091;SDS011;58751;50.708;7.134;2023-08-17T02:26:52;18.17;;;16.43;;
71091;SDS011;58751;50.708;7.134;2023-08-17T02:29:17;18.77;;;17.17;;
71091;SDS011;58751;50.708;7.134;2023-08-17T02:31:44;19.73;;;18.03;;
71091;SDS011;58751;50.708;7.134;2023-08-17T02:34:09;17.27;;;15.97;;
71091;SDS011;58751;50.708;7.134;2023-08-17T02:36:34;17.73;;;16.20;;
71091;SDS011;58751;50.708;7.134;2023-08-17T02:39:00;17.67;;;16.10;;
71091;SDS011;58751;50.708;7.134;2023-08-17T02:41:25;17.93;;;16.33;;
71091;SDS011;58751;50.708;7.134;2023-08-17T02:43:50;16.87;;;15.57;;
71091;SDS011;58751;50.708;7.134;2023-08-17T02:46:15;17.80;;;16.30;;
71091;SDS011;58751;50.708;7.134;2023-08-17T02:48:42;17.03;;;15.10;;
71091;SDS011;58751;50.708;7.134;2023-08-17T02:51:07;15.63;;;14.20;;
71091;SDS011;58751;50.708;7.134;2023-08-17T02:53:32;18.60;;;16.83;;
71091;SDS011;58751;50.708;7.134;2023-08-17T02:55:57;16.27;;;14.97;;
71091;SDS011;58751;50.708;7.134;2023-08-17T02:58:23;15.67;;;14.07;;
71091;SDS011;58751;50.708;7.134;2023-08-17T03:00:50;16.60;;;15.20;;
71091;SDS011;58751;50.708;7.134;2023-08-17T03:03:15;15.60;;;14.10;;
71091;SDS011;58751;50.708;7.134;2023-08-17T03:05:42;15.70;;;14.30;;
71091;SDS011;58751;50.708;7.134;2023-08-17T03:08:07;16.53;;;15.03;;
71091;SDS011;58751;50.708;7.134;2023-08-17T03:10:32;15.40;;;14.10;;
71091;SDS011;58751;50.708;7.134;2023-08-17T03:12:57;15.63;;;14.03;;
71091;SDS011;58751;50.708;7.134;2023-08-17T03:15:23;15.90;;;14.50;;
71091;SDS011;58751;50.708;7.134;2023-08-17T03:17:48;15.80;;;14.27;;
71091;SDS011;58751;50.708;7.134;2023-08-17T03:20:13;16.27;;;14.77;;
71091;SDS011;58751;50.708;7.134;2023-08-17T03:22:40;16.70;;;15.40;;
71091;SDS011;58751;50.708;7.134;2023-08-17T03:25:05;15.27;;;13.97;;
71091;SDS011;58751;50.708;7.134;2023-08-17T03:27:31;15.67;;;14.10;;
71091;SDS011;58751;50.708;7.134;2023-08-17T03:29:56;15.83;;;14.53;;
71091;SDS011;58751;50.708;7.134;2023-08-17T03:32:21;17.47;;;15.87;;
71091;SDS011;58751;50.708;7.134;2023-08-17T03:34:46;15.97;;;14.43;;
71091;SDS011;58751;50.708;7.134;2023-08-17T03:37:12;16.63;;;15.10;;
71091;SDS011;58751;50.708;7.134;2023-08-17T03:39:38;16.20;;;14.60;;
71091;SDS011;58751;50.708;7.134;2023-08-17T03:42:04;15.70;;;14.20;;
71091;SDS011;58751;50.708;7.134;2023-08-17T03:44:29;18.40;;;16.83;;
71091;SDS011;58751;50.708;7.134;2023-08-17T03:46:54;18.17;;;16.30;;
71091;SDS011;58751;50.708;7.134;2023-08-17T03:49:19;19.13;;;16.77;;
71091;SDS011;58751;50.708;7.134;2023-08-17T03:51:44;17.63;;;16.03;;
71091;SDS011;58751;50.708;7.134;2023-08-17T03:54:10;17.67;;;15.63;;
71091;SDS011;58751;50.708;7.134;2023-08-17T03:56:36;19.90;;;17.07;;
71091;SDS011;58751;50.708;7.134;2023-08-17T03:59:01;24.10;;;17.53;;
71091;SDS011;58751;50.708;7.134;2023-08-17T04:01:27;22.53;;;18.30;;
71091;SDS011;58751;50.708;7.134;2023-08-17T04:03:52;20.67;;;16.27;;
71091;SDS011;58751;50.708;7.134;2023-08-17T04:06:17;18.60;;;16.80;;
71091;SDS011;58751;50.708;7.134;2023-08-17T04:08:42;18.80;;;16.80;;
71091;SDS011;58751;50.708;7.134;2023-08-17T04:11:07;24.13;;;18.17;;
71091;SDS011;58751;50.708;7.134;2023-08-17T04:13:34;21.73;;;18.00;;
71091;SDS011;58751;50.708;7.134;2023-08-17T04:15:59;19.07;;;17.07;;
71091;SDS011;58751;50.708;7.134;2023-08-17T04:18:24;20.90;;;17.37;;
71091;SDS011;58751;50.708;7.134;2023-08-17T04:20:50;25.67;;;16.93;;
71091;SDS011;58751;50.708;7.134;2023-08-17T04:23:15;20.80;;;17.47;;
71091;SDS011;58751;50.708;7.134;2023-08-17T04:25:40;19.03;;;17.10;;
71091;SDS011;58751;50.708;7.134;2023-08-17T04:28:05;25.93;;;20.60;;
71091;SDS011;58751;50.708;7.134;2023-08-17T04:30:32;23.10;;;18.97;;
71091;SDS011;58751;50.708;7.134;2023-08-17T04:32:57;23.10;;;19.50;;
71091;SDS011;58751;50.708;7.134;2023-08-17T04:35:22;26.27;;;22.30;;
71091;SDS011;58751;50.708;7.134;2023-08-17T04:37:47;24.27;;;19.90;;
71091;SDS011;58751;50.708;7.134;2023-08-17T04:40:13;30.03;;;21.93;;
71091;SDS011;58751;50.708;7.134;2023-08-17T04:42:38;29.13;;;24.43;;
71091;SDS011;58751;50.708;7.134;2023-08-17T04:45:03;28.20;;;22.20;;
71091;SDS011;58751;50.708;7.134;2023-08-17T04:47:30;33.30;;;24.27;;
71091;SDS011;58751;50.708;7.134;2023-08-17T04:49:55;24.27;;;20.93;;
71091;SDS011;58751;50.708;7.134;2023-08-17T04:52:20;26.30;;;23.13;;
71091;SDS011;58751;50.708;7.134;2023-08-17T04:54:46;26.50;;;22.70;;
71091;SDS011;58751;50.708;7.134;2023-08-17T04:57:11;28.93;;;23.67;;
71091;SDS011;58751;50.708;7.134;2023-08-17T04:59:36;33.27;;;24.53;;
71091;SDS011;58751;50.708;7.134;2023-08-17T05:02:01;34.67;;;26.33;;
71091;SDS011;58751;50.708;7.134;2023-08-17T05:04:29;36.70;;;27.00;;
71091;SDS011;58751;50.708;7.134;2023-08-17T05:06:55;39.30;;;26.50;;
71091;SDS011;58751;50.708;7.134;2023-08-17T05:09:20;37.83;;;28.50;;
71091;SDS011;58751;50.708;7.134;2023-08-17T05:11:45;39.97;;;31.30;;
71091;SDS011;58751;50.708;7.134;2023-08-17T05:14:10;40.17;;;29.10;;
71091;SDS011;58751;50.708;7.134;2023-08-17T05:16:36;42.10;;;26.90;;
71091;SDS011;58751;50.708;7.134;2023-08-17T05:19:01;29.27;;;22.77;;
71091;SDS011;58751;50.708;7.134;2023-08-17T05:21:27;24.47;;;20.30;;
71091;SDS011;58751;50.708;7.134;2023-08-17T05:23:53;19.70;;;17.63;;
71091;SDS011;58751;50.708;7.134;2023-08-17T05:26:18;19.87;;;17.87;;
71091;SDS011;58751;50.708;7.134;2023-08-17T05:28:43;19.47;;;17.40;;
71091;SDS011;58751;50.708;7.134;2023-08-17T05:31:08;19.60;;;16.10;;
71091;SDS011;58751;50.708;7.134;2023-08-17T05:33:34;16.97;;;14.20;;
71091;SDS011;58751;50.708;7.134;2023-08-17T05:35:59;11.93;;;10.93;;
71091;SDS011;58751;50.708;7.134;2023-08-17T05:38:26;12.27;;;10.97;;
71091;SDS011;58751;50.708;7.134;2023-08-17T05:40:54;12.87;;;11.57;;
71091;SDS011;58751;50.708;7.134;2023-08-17T05:43:19;12.87;;;11.73;;
71091;SDS011;58751;50.708;7.134;2023-08-17T05:45:44;10.43;;;9.53;;
71091;SDS011;58751;50.708;7.134;2023-08-17T05:48:09;10.00;;;8.90;;
71091;SDS011;58751;50.708;7.134;2023-08-17T05:50:35;10.90;;;9.93;;
71091;SDS011;58751;50.708;7.134;2023-08-17T05:53:00;10.87;;;9.93;;
71091;SDS011;58751;50.708;7.134;2023-08-17T05:55:26;9.90;;;8.60;;
71091;SDS011;58751;50.708;7.134;2023-08-17T05:57:52;9.93;;;9.13;;
71091;SDS011;58751;50.708;7.134;2023-08-17T06:00:17;9.40;;;8.60;;
71091;SDS011;58751;50.708;7.134;2023-08-17T06:02:42;10.37;;;9.37;;
71091;SDS011;58751;50.708;7.134;2023-08-17T06:05:07;11.33;;;10.43;;
71091;SDS011;58751;50.708;7.134;2023-08-17T06:07:33;10.73;;;9.70;;
71091;SDS011;58751;50.708;7.134;2023-08-17T06:09:58;10.97;;;9.90;;
71091;SDS011;58751;50.708;7.134;2023-08-17T06:12:24;9.80;;;9.10;;
71091;SDS011;58751;50.708;7.134;2023-08-17T06:14:50;8.93;;;8.17;;
71091;SDS011;58751;50.708;7.134;2023-08-17T06:17:15;11.03;;;10.17;;
71091;SDS011;58751;50.708;7.134;2023-08-17T06:19:40;9.90;;;9.20;;
71091;SDS011;58751;50.708;7.134;2023-08-17T06:22:05;9.33;;;8.63;;
71091;SDS011;58751;50.708;7.134;2023-08-17T06:24:30;9.90;;;9.00;;
71091;SDS011;58751;50.708;7.134;2023-08-17T06:26:56;9.00;;;8.20;;
71091;SDS011;58751;50.708;7.134;2023-08-17T06:29:22;10.63;;;9.70;;
71091;SDS011;58751;50.708;7.134;2023-08-17T06:31:48;10.87;;;10.07;;
71091;SDS011;58751;50.708;7.134;2023-08-17T06:34:13;11.00;;;10.00;;
71091;SDS011;58751;50.708;7.134;2023-08-17T06:36:38;10.97;;;9.97;;
71091;SDS011;58751;50.708;7.134;2023-08-17T06:39:03;10.80;;;9.70;;
71091;SDS011;58751;50.708;7.134;2023-08-17T06:41:29;10.43;;;9.50;;
71091;SDS011;58751;50.708;7.134;2023-08-17T06:43:54;9.90;;;9.00;;
71091;SDS011;58751;50.708;7.134;2023-08-17T06:46:21;10.50;;;9.60;;
71091;SDS011;58751;50.708;7.134;2023-08-17T06:48:46;9.73;;;8.53;;
71091;SDS011;58751;50.708;7.134;2023-08-17T06:51:11;9.23;;;8.33;;
71091;SDS011;58751;50.708;7.134;2023-08-17T06:53:37;11.03;;;8.77;;
71091;SDS011;58751;50.708;7.134;2023-08-17T06:56:02;10.93;;;9.37;;
71091;SDS011;58751;50.708;7.134;2023-08-17T06:58:27;10.70;;;9.70;;
71091;SDS011;58751;50.708;7.134;2023-08-17T07:00:52;10.00;;;9.00;;
71091;SDS011;58751;50.708;7.134;2023-08-17T07:03:19;11.83;;;9.43;;
71091;SDS011;58751;50.708;7.134;2023-08-17T07:05:44;9.83;;;9.00;;
71091;SDS011;58751;50.708;7.134;2023-08-17T07:08:09;9.40;;;8.70;;
71091;SDS011;58751;50.708;7.134;2023-08-17T07:10:35;10.37;;;9.43;;
71091;SDS011;58751;50.708;7.134;2023-08-17T07:13:00;9.83;;;8.93;;
71091;SDS011;58751;50.708;7.134;2023-08-17T07:15:25;10.87;;;9.40;;
71091;SDS011;58751;50.708;7.134;2023-08-17T07:17:50;11.23;;;10.00;;
71091;SDS011;58751;50.708;7.134;2023-08-17T07:20:17;9.50;;;8.43;;
71091;SDS011;58751;50.708;7.134;2023-08-17T07:22:42;9.67;;;8.57;;
71091;SDS011;58751;50.708;7.134;2023-08-17T07:25:07;10.40;;;9.50;;
71091;SDS011;58751;50.708;7.134;2023-08-17T07:27:33;11.30;;;10.20;;
71091;SDS011;58751;50.708;7.134;2023-08-17T07:29:58;67.10;;;35.03;;
71091;SDS011;58751;50.708;7.134;2023-08-17T07:32:23;48.00;;;28.93;;
71091;SDS011;58751;50.708;7.134;2023-08-17T07:34:48;15.17;;;12.23;;
71091;SDS011;58751;50.708;7.134;2023-08-17T07:37:15;17.73;;;11.30;;
71091;SDS011;58751;50.708;7.134;2023-08-17T07:39:40;14.47;;;11.73;;
71091;SDS011;58751;50.708;7.134;2023-08-17T07:42:05;12.20;;;11.07;;
71091;SDS011;58751;50.708;7.134;2023-08-17T07:44:31;16.17;;;11.33;;
71091;SDS011;58751;50.708;7.134;2023-08-17T07:46:56;13.93;;;10.40;;
71091;SDS011;58751;50.708;7.134;2023-08-17T07:49:21;12.40;;;11.40;;
71091;SDS011;58751;50.708;7.134;2023-08-17T07:51:46;13.77;;;12.37;;
71091;SDS011;58751;50.708;7.134;2023-08-17T07:54:13;12.57;;;10.97;;
71091;SDS011;58751;50.708;7.134;2023-08-17T07:56:38;13.13;;;11.83;;
71091;SDS011;58751;50.708;7.134;2023-08-17T07:59:03;19.07;;;14.23;;
71091;SDS011;58751;50.708;7.134;2023-08-17T08:01:29;14.67;;;13.27;;
71091;SDS011;58751;50.708;7.134;2023-08-17T08:03:54;13.77;;;12.33;;
71091;SDS011;58751;50.708;7.134;2023-08-17T08:06:19;13.70;;;12.40;;
71091;SDS011;58751;50.708;7.134;2023-08-17T08:08:44;14.63;;;13.30;;
71091;SDS011;58751;50.708;7.134;2023-08-17T08:11:11;14.47;;;13.07;;
71091;SDS011;58751;50.708;7.134;2023-08-17T08:13:36;14.67;;;13.27;;
71091;SDS011;58751;50.708;7.134;2023-08-17T08:16:01;15.97;;;14.10;;
71091;SDS011;58751;50.708;7.134;2023-08-17T08:18:26;18.60;;;14.73;;
71091;SDS011;58751;50.708;7.134;2023-08-17T08:20:52;14.00;;;12.73;;
71091;SDS011;58751;50.708;7.134;2023-08-17T08:23:17;16.30;;;13.50;;
71091;SDS011;58751;50.708;7.134;2023-08-17T08:25:42;15.73;;;14.43;;
71091;SDS011;58751;50.708;7.134;2023-08-17T08:28:09;17.97;;;16.00;;
71091;SDS011;58751;50.708;7.134;2023-08-17T08:30:34;16.37;;;14.90;;
71091;SDS011;58751;50.708;7.134;2023-08-17T08:32:59;19.90;;;17.97;;
71091;SDS011;58751;50.708;7.134;2023-08-17T08:35:25;19.67;;;17.67;;
71091;SDS011;58751;50.708;7.134;2023-08-17T08:37:50;18.63;;;16.67;;
71091;SDS011;58751;50.708;7.134;2023-08-17T08:40:16;18.63;;;16.73;;
71091;SDS011;58751;50.708;7.134;2023-08-17T08:42:42;19.30;;;17.40;;
71091;SDS011;58751;50.708;7.134;2023-08-17T08:45:08;21.27;;;16.93;;
71091;SDS011;58751;50.708;7.134;2023-08-17T08:47:34;19.27;;;17.10;;
71091;SDS011;58751;50.708;7.134;2023-08-17T08:50:01;17.03;;;15.77;;
71091;SDS011;58751;50.708;7.134;2023-08-17T08:52:28;20.03;;;18.23;;
71091;SDS011;58751;50.708;7.134;2023-08-17T08:54:56;19.20;;;17.40;;
71091;SDS011;58751;50.708;7.134;2023-08-17T08:57:22;20.20;;;18.23;;
71091;SDS011;58751;50.708;7.134;2023-08-17T08:59:48;22.23;;;20.43;;
71091;SDS011;58751;50.708;7.134;2023-08-17T09:02:15;20.27;;;18.37;;
71091;SDS011;58751;50.708;7.134;2023-08-17T09:04:41;22.70;;;20.40;;
71091;SDS011;58751;50.708;7.134;2023-08-17T09:07:06;21.10;;;19.20;;
71091;SDS011;58751;50.708;7.134;2023-08-17T09:09:32;19.90;;;18.10;;
71091;SDS011;58751;50.708;7.134;2023-08-17T09:11:58;22.67;;;20.50;;
71091;SDS011;58751;50.708;7.134;2023-08-17T09:14:24;20.67;;;18.70;;
71091;SDS011;58751;50.708;7.134;2023-08-17T09:16:49;22.77;;;20.70;;
71091;SDS011;58751;50.708;7.134;2023-08-17T09:19:15;21.93;;;19.93;;
71091;SDS011;58751;50.708;7.134;2023-08-17T09:21:42;22.30;;;20.30;;
71091;SDS011;58751;50.708;7.134;2023-08-17T09:24:07;21.70;;;19.67;;
71091;SDS011;58751;50.708;7.134;2023-08-17T09:26:33;19.80;;;18.20;;
71091;SDS011;58751;50.708;7.134;2023-08-17T09:28:58;19.37;;;17.37;;
71091;SDS011;58751;50.708;7.134;2023-08-17T09:31:24;23.13;;;21.00;;
71091;SDS011;58751;50.708;7.134;2023-08-17T09:33:49;22.10;;;20.10;;
71091;SDS011;58751;50.708;7.134;2023-08-17T09:36:19;21.20;;;19.40;;
71091;SDS011;58751;50.708;7.134;2023-08-17T09:38:44;23.73;;;21.53;;
71091;SDS011;58751;50.708;7.134;2023-08-17T09:41:12;24.53;;;22.40;;
71091;SDS011;58751;50.708;7.134;2023-08-17T09:43:37;24.63;;;22.63;;
71091;SDS011;58751;50.708;7.134;2023-08-17T09:46:02;24.80;;;22.40;;
71091;SDS011;58751;50.708;7.134;2023-08-17T09:48:28;21.93;;;20.10;;
71091;SDS011;58751;50.708;7.134;2023-08-17T09:50:57;23.73;;;21.40;;
71091;SDS011;58751;50.708;7.134;2023-08-17T09:53:23;24.03;;;21.93;;
71091;SDS011;58751;50.708;7.134;2023-08-17T09:55:49;23.03;;;20.97;;
71091;SDS011;58751;50.708;7.134;2023-08-17T09:58:14;23.83;;;21.73;;
71091;SDS011;58751;50.708;7.134;2023-08-17T10:00:39;26.00;;;23.90;;
71091;SDS011;58751;50.708;7.134;2023-08-17T10:03:06;24.50;;;22.50;;
71091;SDS011;58751;50.708;7.134;2023-08-17T10:05:34;23.97;;;21.73;;
71091;SDS011;58751;50.708;7.134;2023-08-17T10:08:00;24.87;;;22.53;;
71091;SDS011;58751;50.708;7.134;2023-08-17T10:10:27;24.57;;;22.37;;
71091;SDS011;58751;50.708;7.134;2023-08-17T10:12:56;24.30;;;21.97;;
71091;SDS011;58751;50.708;7.134;2023-08-17T10:15:24;22.43;;;20.47;;
71091;SDS011;58751;50.708;7.134;2023-08-17T10:17:53;23.37;;;21.07;;
71091;SDS011;58751;50.708;7.134;2023-08-17T10:20:20;27.57;;;24.87;;
71091;SDS011;58751;50.708;7.134;2023-08-17T10:22:47;26.00;;;23.47;;
71091;SDS011;58751;50.708;7.134;2023-08-17T10:25:13;25.17;;;22.93;;
71091;SDS011;58751;50.708;7.134;2023-08-17T10:27:41;26.17;;;23.90;;
71091;SDS011;58751;50.708;7.134;2023-08-17T10:30:07;24.40;;;21.97;;
71091;SDS011;58751;50.708;7.134;2023-08-17T10:32:33;23.23;;;21.20;;
71091;SDS011;58751;50.708;7.134;2023-08-17T10:34:59;22.57;;;20.57;;
71091;SDS011;58751;50.708;7.134;2023-08-17T10:37:24;22.00;;;20.20;;
71091;SDS011;58751;50.708;7.134;2023-08-17T10:39:50;20.73;;;19.07;;
71091;SDS011;58751;50.708;7.134;2023-08-17T10:42:15;20.23;;;18.53;;
71091;SDS011;58751;50.708;7.134;2023-08-17T10:44:55;21.23;;;19.43;;
71091;SDS011;58751;50.708;7.134;2023-08-17T10:47:21;21.07;;;19.27;;
71091;SDS011;58751;50.708;7.134;2023-08-17T10:49:47;18.13;;;16.60;;
71091;SDS011;58751;50.708;7.134;2023-08-17T10:52:13;17.50;;;15.77;;
71091;SDS011;58751;50.708;7.134;2023-08-17T10:54:38;17.80;;;16.40;;
71091;SDS011;58751;50.708;7.134;2023-08-17T10:59:48;16.20;;;14.90;;
71091;SDS011;58751;50.708;7.134;2023-08-17T11:02:32;17.00;;;15.50;;
71091;SDS011;58751;50.708;7.134;2023-08-17T11:04:58;18.03;;;14.50;;
71091;SDS011;58751;50.708;7.134;2023-08-17T11:07:23;17.67;;;15.97;;
71091;SDS011;58751;50.708;7.134;2023-08-17T11:09:48;16.27;;;14.60;;
71091;SDS011;58751;50.708;7.134;2023-08-17T11:12:24;15.97;;;14.70;;
71091;SDS011;58751;50.708;7.134;2023-08-17T11:14:49;13.53;;;12.53;;
71091;SDS011;58751;50.708;7.134;2023-08-17T11:17:15;16.23;;;14.80;;
71091;SDS011;58751;50.708;7.134;2023-08-17T11:19:41;15.80;;;14.60;;
71091;SDS011;58751;50.708;7.134;2023-08-17T11:22:06;15.00;;;13.80;;
71091;SDS011;58751;50.708;7.134;2023-08-17T11:24:32;14.93;;;13.87;;
71091;SDS011;58751;50.708;7.134;2023-08-17T11:26:58;15.27;;;14.10;;
71091;SDS011;58751;50.708;7.134;2023-08-17T11:29:23;15.83;;;14.53;;
71091;SDS011;58751;50.708;7.134;2023-08-17T11:31:49;14.93;;;13.63;;
71091;SDS011;58751;50.708;7.134;2023-08-17T11:34:15;14.50;;;13.23;;
71091;SDS011;58751;50.708;7.134;2023-08-17T11:36:41;11.40;;;10.43;;
71091;SDS011;58751;50.708;7.134;2023-08-17T11:39:06;9.33;;;8.53;;
71091;SDS011;58751;50.708;7.134;2023-08-17T11:41:32;8.73;;;8.07;;
71091;SDS011;58751;50.708;7.134;2023-08-17T11:43:57;10.20;;;9.40;;
71091;SDS011;58751;50.708;7.134;2023-08-17T11:46:22;12.10;;;11.20;;
71091;SDS011;58751;50.708;7.134;2023-08-17T11:48:48;9.80;;;9.00;;
71091;SDS011;58751;50.708;7.134;2023-08-17T11:51:14;9.13;;;8.43;;
71091;SDS011;58751;50.708;7.134;2023-08-17T11:53:40;10.20;;;9.40;;
71091;SDS011;58751;50.708;7.134;2023-08-17T11:56:06;9.53;;;8.63;;
71091;SDS011;58751;50.708;7.134;2023-08-17T11:58:40;9.80;;;9.00;;
71091;SDS011;58751;50.708;7.134;2023-08-17T12:01:08;10.77;;;9.33;;
71091;SDS011;58751;50.708;7.134;2023-08-17T12:03:34;9.20;;;8.50;;
71091;SDS011;58751;50.708;7.134;2023-08-17T12:05:59;13.30;;;9.73;;
71091;SDS011;58751;50.708;7.134;2023-08-17T12:08:24;8.93;;;8.10;;
71091;SDS011;58751;50.708;7.134;2023-08-17T12:10:51;8.57;;;7.97;;
71091;SDS011;58751;50.708;7.134;2023-08-17T12:13:17;9.97;;;9.10;;
71091;SDS011;58751;50.708;7.134;2023-08-17T12:15:42;11.17;;;10.27;;
71091;SDS011;58751;50.708;7.134;2023-08-17T12:18:07;12.63;;;11.33;;
71091;SDS011;58751;50.708;7.134;2023-08-17T12:20:33;10.70;;;9.90;;
71091;SDS011;58751;50.708;7.134;2023-08-17T12:22:58;12.30;;;11.17;;
71091;SDS011;58751;50.708;7.134;2023-08-17T12:25:24;15.43;;;13.93;;
71091;SDS011;58751;50.708;7.134;2023-08-17T12:27:51;14.70;;;13.50;;
71091;SDS011;58751;50.708;7.134;2023-08-17T12:30:26;15.23;;;13.80;;
71091;SDS011;58751;50.708;7.134;2023-08-17T12:32:52;16.37;;;14.93;;
71091;SDS011;58751;50.708;7.134;2023-08-17T12:35:17;16.30;;;15.00;;
71091;SDS011;58751;50.708;7.134;2023-08-17T12:37:42;16.73;;;15.17;;
71091;SDS011;58751;50.708;7.134;2023-08-17T12:40:08;15.33;;;14.03;;
71091;SDS011;58751;50.708;7.134;2023-08-17T12:42:33;16.30;;;14.90;;
71091;SDS011;58751;50.708;7.134;2023-08-17T12:45:00;16.27;;;14.97;;
71091;SDS011;58751;50.708;7.134;2023-08-17T12:47:25;17.17;;;15.77;;
71091;SDS011;58751;50.708;7.134;2023-08-17T12:49:50;16.17;;;14.90;;
71091;SDS011;58751;50.708;7.134;2023-08-17T12:52:15;16.10;;;15.00;;
71091;SDS011;58751;50.708;7.134;2023-08-17T12:54:41;16.23;;;14.83;;
71091;SDS011;58751;50.708;7.134;2023-08-17T12:57:06;17.83;;;16.43;;
71091;SDS011;58751;50.708;7.134;2023-08-17T12:59:31;18.43;;;16.93;;
71091;SDS011;58751;50.708;7.134;2023-08-17T13:01:58;17.50;;;15.97;;
71091;SDS011;58751;50.708;7.134;2023-08-17T13:04:23;17.13;;;15.90;;
71091;SDS011;58751;50.708;7.134;2023-08-17T13:06:48;18.73;;;17.07;;
71091;SDS011;58751;50.708;7.134;2023-08-17T13:09:14;18.30;;;16.80;;
71091;SDS011;58751;50.708;7.134;2023-08-17T13:11:39;16.80;;;15.50;;
71091;SDS011;58751;50.708;7.134;2023-08-17T13:14:04;19.17;;;17.47;;
71091;SDS011;58751;50.708;7.134;2023-08-17T13:16:29;19.07;;;17.47;;
71091;SDS011;58751;50.708;7.134;2023-08-17T13:18:56;20.67;;;19.00;;
71091;SDS011;58751;50.708;7.134;2023-08-17T13:21:21;23.20;;;21.37;;
71091;SDS011;58751;50.708;7.134;2023-08-17T13:23:46;22.70;;;20.87;;
71091;SDS011;58751;50.708;7.134;2023-08-17T13:26:11;23.50;;;21.70;;
71091;SDS011;58751;50.708;7.134;2023-08-17T13:28:37;24.33;;;22.20;;
71091;SDS011;58751;50.708;7.134;2023-08-17T13:31:02;25.53;;;23.43;;
71091;SDS011;58751;50.708;7.134;2023-08-17T13:33:28;24.87;;;22.80;;
71091;SDS011;58751;50.708;7.134;2023-08-17T13:35:54;26.10;;;23.97;;
71091;SDS011;58751;50.708;7.134;2023-08-17T13:38:20;25.23;;;23.03;;
71091;SDS011;58751;50.708;7.134;2023-08-17T13:40:45;26.33;;;24.20;;
71091;SDS011;58751;50.708;7.134;2023-08-17T13:43:10;24.73;;;22.63;;
71091;SDS011;58751;50.708;7.134;2023-08-17T13:45:35;23.17;;;21.23;;
71091;SDS011;58751;50.708;7.134;2023-08-17T13:48:01;23.13;;;20.90;;
71091;SDS011;58751;50.708;7.134;2023-08-17T13:50:26;22.40;;;20.70;;
71091;SDS011;58751;50.708;7.134;2023-08-17T13:52:52;22.90;;;21.00;;
71091;SDS011;58751;50.708;7.134;2023-08-17T13:55:18;24.03;;;21.93;;
71091;SDS011;58751;50.708;7.134;2023-08-17T13:57:43;22.83;;;20.83;;
71091;SDS011;58751;50.708;7.134;2023-08-17T14:00:09;21.73;;;19.97;;
71091;SDS011;58751;50.708;7.134;2023-08-17T14:02:34;21.93;;;20.13;;
71091;SDS011;58751;50.708;7.134;2023-08-17T14:05:00;21.50;;;19.70;;
71091;SDS011;58751;50.708;7.134;2023-08-17T14:07:25;21.77;;;20.00;;
71091;SDS011;58751;50.708;7.134;2023-08-17T14:09:51;20.60;;;18.50;;
71091;SDS011;58751;50.708;7.134;2023-08-17T14:12:17;19.67;;;17.90;;
71091;SDS011;58751;50.708;7.134;2023-08-17T14:14:42;19.83;;;17.90;;
71091;SDS011;58751;50.708;7.134;2023-08-17T14:17:07;20.40;;;18.63;;